sensor_id;sensor_type;location;lat;lon;timestamp;temperature;humidity
18577;DHT22;9418;52.694;13.294;2022-10-29T00:00:30;15.60;94.90
18577;DHT22;9418;52.694;13.294;2022-10-29T00:02:58;15.60;96.00
18577;DHT22;9418;52.694;13.294;2022-10-29T00:05:24;15.60;94.90
18577;DHT22;9418;52.694;13.294;2022-10-29T00:07:51;15.60;95.30
18577;DHT22;9418;52.694;13.294;2022-10-29T00:10:17;15.50;92.40
18577;DHT22;9418;52.694;13.294;2022-10-29T00:12:44;15.50;88.80
18577;DHT22;9418;52.694;13.294;2022-10-29T00:15:10;15.50;84.60
18577;DHT22;9418;52.694;13.294;2022-10-29T00:17:37;15.60;87.60
18577;DHT22;9418;52.694;13.294;2022-10-29T00:20:06;15.60;89.50
18577;DHT22;9418;52.694;13.294;2022-10-29T00:22:33;15.60;88.70
18577;DHT22;9418;52.694;13.294;2022-10-29T00:25:00;15.70;89.30
18577;DHT22;9418;52.694;13.294;2022-10-29T00:27:26;15.70;91.30
18577;DHT22;9418;52.694;13.294;2022-10-29T00:29:53;15.70;91.20
18577;DHT22;9418;52.694;13.294;2022-10-29T00:32:20;15.70;92.10
18577;DHT22;9418;52.694;13.294;2022-10-29T00:34:47;15.70;88.70
18577;DHT22;9418;52.694;13.294;2022-10-29T00:37:15;15.70;87.80
18577;DHT22;9418;52.694;13.294;2022-10-29T00:39:41;15.70;87.50
18577;DHT22;9418;52.694;13.294;2022-10-29T00:42:13;15.80;87.50
18577;DHT22;9418;52.694;13.294;2022-10-29T00:44:40;15.70;87.30
18577;DHT22;9418;52.694;13.294;2022-10-29T00:47:17;15.70;83.60
18577;DHT22;9418;52.694;13.294;2022-10-29T00:49:46;15.60;81.70
18577;DHT22;9418;52.694;13.294;2022-10-29T00:52:17;15.60;77.40
18577;DHT22;9418;52.694;13.294;2022-10-29T00:54:45;15.60;75.30
18577;DHT22;9418;52.694;13.294;2022-10-29T00:57:16;15.60;67.90
18577;DHT22;9418;52.694;13.294;2022-10-29T00:59:46;15.70;70.30
18577;DHT22;9418;52.694;13.294;2022-10-29T01:02:13;15.80;67.90
18577;DHT22;9418;52.694;13.294;2022-10-29T01:04:41;15.70;70.80
18577;DHT22;9418;52.694;13.294;2022-10-29T01:07:08;15.60;68.80
18577;DHT22;9418;52.694;13.294;2022-10-29T01:09:37;15.60;64.50
18577;DHT22;9418;52.694;13.294;2022-10-29T01:12:17;15.50;62.70
18577;DHT22;9418;52.694;13.294;2022-10-29T01:14:51;15.50;61.30
18577;DHT22;9418;52.694;13.294;2022-10-29T01:17:29;15.50;60.00
18577;DHT22;9418;52.694;13.294;2022-10-29T01:20:34;15.40;59.40
18577;DHT22;9418;52.694;13.294;2022-10-29T01:23:17;15.30;53.90
18577;DHT22;9418;52.694;13.294;2022-10-29T01:26:06;15.30;50.80
18577;DHT22;9418;52.694;13.294;2022-10-29T01:28:56;15.30;48.40
18577;DHT22;9418;52.694;13.294;2022-10-29T01:31:33;15.30;48.50
18577;DHT22;9418;52.694;13.294;2022-10-29T01:34:04;15.20;47.90
18577;DHT22;9418;52.694;13.294;2022-10-29T01:36:37;15.20;43.10
18577;DHT22;9418;52.694;13.294;2022-10-29T01:39:11;15.20;42.10
18577;DHT22;9418;52.694;13.294;2022-10-29T01:41:45;15.10;44.00
18577;DHT22;9418;52.694;13.294;2022-10-29T01:44:23;15.00;41.30
18577;DHT22;9418;52.694;13.294;2022-10-29T01:46:55;14.90;38.90
18577;DHT22;9418;52.694;13.294;2022-10-29T01:49:27;14.90;32.20
18577;DHT22;9418;52.694;13.294;2022-10-29T01:51:55;14.80;29.00
18577;DHT22;9418;52.694;13.294;2022-10-29T01:54:22;14.80;26.80
18577;DHT22;9418;52.694;13.294;2022-10-29T01:56:53;14.70;24.80
18577;DHT22;9418;52.694;13.294;2022-10-29T01:59:20;14.70;24.20
18577;DHT22;9418;52.694;13.294;2022-10-29T02:01:53;14.70;76.40
18577;DHT22;9418;52.694;13.294;2022-10-29T02:04:40;14.70;85.50
18577;DHT22;9418;52.694;13.294;2022-10-29T02:07:19;14.60;99.90
18577;DHT22;9418;52.694;13.294;2022-10-29T02:09:52;14.60;99.90
18577;DHT22;9418;52.694;13.294;2022-10-29T02:12:24;14.50;99.90
18577;DHT22;9418;52.694;13.294;2022-10-29T02:14:55;14.50;99.90
18577;DHT22;9418;52.694;13.294;2022-10-29T02:17:23;14.50;99.90
18577;DHT22;9418;52.694;13.294;2022-10-29T02:19:51;14.50;99.90
18577;DHT22;9418;52.694;13.294;2022-10-29T02:22:18;14.40;99.90
18577;DHT22;9418;52.694;13.294;2022-10-29T02:24:44;14.30;99.90
18577;DHT22;9418;52.694;13.294;2022-10-29T02:27:11;14.30;99.90
18577;DHT22;9418;52.694;13.294;2022-10-29T02:29:38;14.30;99.90
18577;DHT22;9418;52.694;13.294;2022-10-29T02:32:05;14.30;99.90
18577;DHT22;9418;52.694;13.294;2022-10-29T02:34:31;14.30;99.90
18577;DHT22;9418;52.694;13.294;2022-10-29T02:36:59;14.30;99.90
18577;DHT22;9418;52.694;13.294;2022-10-29T02:39:26;14.30;99.90
18577;DHT22;9418;52.694;13.294;2022-10-29T02:41:52;14.30;99.90
18577;DHT22;9418;52.694;13.294;2022-10-29T02:44:19;14.30;99.90
18577;DHT22;9418;52.694;13.294;2022-10-29T02:46:45;14.40;99.90
18577;DHT22;9418;52.694;13.294;2022-10-29T02:49:12;14.40;99.90
18577;DHT22;9418;52.694;13.294;2022-10-29T02:51:38;14.40;99.90
18577;DHT22;9418;52.694;13.294;2022-10-29T02:54:06;14.50;99.90
18577;DHT22;9418;52.694;13.294;2022-10-29T02:56:33;14.50;99.90
18577;DHT22;9418;52.694;13.294;2022-10-29T02:58:59;14.50;99.90
18577;DHT22;9418;52.694;13.294;2022-10-29T03:01:26;14.50;99.90
18577;DHT22;9418;52.694;13.294;2022-10-29T03:03:52;14.40;99.90
18577;DHT22;9418;52.694;13.294;2022-10-29T03:06:19;14.50;99.90
18577;DHT22;9418;52.694;13.294;2022-10-29T03:08:46;14.50;99.90
18577;DHT22;9418;52.694;13.294;2022-10-29T03:11:14;14.50;99.90
18577;DHT22;9418;52.694;13.294;2022-10-29T03:13:41;14.50;99.90
18577;DHT22;9418;52.694;13.294;2022-10-29T03:16:08;14.60;99.90
18577;DHT22;9418;52.694;13.294;2022-10-29T03:18:35;14.50;99.90
18577;DHT22;9418;52.694;13.294;2022-10-29T03:21:01;14.60;99.90
18577;DHT22;9418;52.694;13.294;2022-10-29T03:23:28;14.60;99.90
18577;DHT22;9418;52.694;13.294;2022-10-29T03:25:55;14.60;99.90
18577;DHT22;9418;52.694;13.294;2022-10-29T03:28:24;14.60;99.90
18577;DHT22;9418;52.694;13.294;2022-10-29T03:30:52;14.50;99.90
18577;DHT22;9418;52.694;13.294;2022-10-29T03:33:18;14.50;99.90
18577;DHT22;9418;52.694;13.294;2022-10-29T03:35:45;14.50;99.90
18577;DHT22;9418;52.694;13.294;2022-10-29T03:38:11;14.40;99.90
18577;DHT22;9418;52.694;13.294;2022-10-29T03:40:38;14.40;99.90
18577;DHT22;9418;52.694;13.294;2022-10-29T03:43:05;14.40;99.90
18577;DHT22;9418;52.694;13.294;2022-10-29T03:45:32;14.40;99.90
18577;DHT22;9418;52.694;13.294;2022-10-29T03:47:59;14.40;99.90
18577;DHT22;9418;52.694;13.294;2022-10-29T03:50:26;14.30;99.90
18577;DHT22;9418;52.694;13.294;2022-10-29T03:52:52;14.20;99.90
18577;DHT22;9418;52.694;13.294;2022-10-29T03:55:19;14.20;99.90
18577;DHT22;9418;52.694;13.294;2022-10-29T03:57:45;14.20;99.90
18577;DHT22;9418;52.694;13.294;2022-10-29T04:00:13;14.20;99.90
18577;DHT22;9418;52.694;13.294;2022-10-29T04:02:41;14.10;99.90
18577;DHT22;9418;52.694;13.294;2022-10-29T04:05:07;14.10;99.90
18577;DHT22;9418;52.694;13.294;2022-10-29T04:07:34;14.10;99.90
18577;DHT22;9418;52.694;13.294;2022-10-29T04:10:01;14.10;99.90
18577;DHT22;9418;52.694;13.294;2022-10-29T04:12:27;14.10;99.90
18577;DHT22;9418;52.694;13.294;2022-10-29T04:14:54;14.00;99.90
18577;DHT22;9418;52.694;13.294;2022-10-29T04:17:20;14.00;99.90
18577;DHT22;9418;52.694;13.294;2022-10-29T04:19:48;13.90;99.90
18577;DHT22;9418;52.694;13.294;2022-10-29T04:22:15;13.90;99.90
18577;DHT22;9418;52.694;13.294;2022-10-29T04:24:41;13.80;99.90
18577;DHT22;9418;52.694;13.294;2022-10-29T04:27:08;13.80;99.90
18577;DHT22;9418;52.694;13.294;2022-10-29T04:29:34;13.70;99.90
18577;DHT22;9418;52.694;13.294;2022-10-29T04:32:01;13.70;99.90
18577;DHT22;9418;52.694;13.294;2022-10-29T04:34:27;13.70;99.90
18577;DHT22;9418;52.694;13.294;2022-10-29T04:36:55;13.70;99.90
18577;DHT22;9418;52.694;13.294;2022-10-29T04:39:22;13.60;99.90
18577;DHT22;9418;52.694;13.294;2022-10-29T04:41:49;13.60;99.90
18577;DHT22;9418;52.694;13.294;2022-10-29T04:44:15;13.50;99.90
18577;DHT22;9418;52.694;13.294;2022-10-29T04:46:42;13.40;99.90
18577;DHT22;9418;52.694;13.294;2022-10-29T04:49:08;13.30;99.90
18577;DHT22;9418;52.694;13.294;2022-10-29T04:51:35;13.30;99.90
18577;DHT22;9418;52.694;13.294;2022-10-29T04:54:03;13.20;99.90
18577;DHT22;9418;52.694;13.294;2022-10-29T04:56:30;13.20;99.90
18577;DHT22;9418;52.694;13.294;2022-10-29T04:58:56;13.20;99.90
18577;DHT22;9418;52.694;13.294;2022-10-29T05:01:23;13.20;99.90
18577;DHT22;9418;52.694;13.294;2022-10-29T05:03:50;13.20;99.90
18577;DHT22;9418;52.694;13.294;2022-10-29T05:06:16;13.10;99.90
18577;DHT22;9418;52.694;13.294;2022-10-29T05:08:43;13.20;99.90
18577;DHT22;9418;52.694;13.294;2022-10-29T05:11:11;13.10;99.90
18577;DHT22;9418;52.694;13.294;2022-10-29T05:13:37;13.10;99.90
18577;DHT22;9418;52.694;13.294;2022-10-29T05:16:05;13.10;99.90
18577;DHT22;9418;52.694;13.294;2022-10-29T05:18:31;13.10;99.90
18577;DHT22;9418;52.694;13.294;2022-10-29T05:20:58;13.00;99.90
18577;DHT22;9418;52.694;13.294;2022-10-29T05:23:24;13.10;99.90
18577;DHT22;9418;52.694;13.294;2022-10-29T05:25:51;13.00;99.90
18577;DHT22;9418;52.694;13.294;2022-10-29T05:28:22;13.00;99.90
18577;DHT22;9418;52.694;13.294;2022-10-29T05:30:51;13.00;99.90
18577;DHT22;9418;52.694;13.294;2022-10-29T05:33:21;13.10;99.90
18577;DHT22;9418;52.694;13.294;2022-10-29T05:35:48;13.10;99.90
18577;DHT22;9418;52.694;13.294;2022-10-29T05:38:15;13.00;99.90
18577;DHT22;9418;52.694;13.294;2022-10-29T05:40:42;13.00;99.90
18577;DHT22;9418;52.694;13.294;2022-10-29T05:43:09;13.10;99.90
18577;DHT22;9418;52.694;13.294;2022-10-29T05:45:37;13.10;99.90
18577;DHT22;9418;52.694;13.294;2022-10-29T05:48:04;13.10;99.90
18577;DHT22;9418;52.694;13.294;2022-10-29T05:50:32;13.00;99.90
18577;DHT22;9418;52.694;13.294;2022-10-29T05:53:00;13.10;99.90
18577;DHT22;9418;52.694;13.294;2022-10-29T05:55:27;13.10;99.90
18577;DHT22;9418;52.694;13.294;2022-10-29T05:57:55;13.00;99.90
18577;DHT22;9418;52.694;13.294;2022-10-29T06:00:22;12.90;99.90
18577;DHT22;9418;52.694;13.294;2022-10-29T06:02:50;12.80;99.90
18577;DHT22;9418;52.694;13.294;2022-10-29T06:05:16;12.80;99.90
18577;DHT22;9418;52.694;13.294;2022-10-29T06:07:43;12.70;99.90
18577;DHT22;9418;52.694;13.294;2022-10-29T06:10:10;12.70;99.90
18577;DHT22;9418;52.694;13.294;2022-10-29T06:12:36;12.60;99.90
18577;DHT22;9418;52.694;13.294;2022-10-29T06:15:04;12.60;99.90
18577;DHT22;9418;52.694;13.294;2022-10-29T06:17:31;12.60;99.90
18577;DHT22;9418;52.694;13.294;2022-10-29T06:19:58;12.50;99.90
18577;DHT22;9418;52.694;13.294;2022-10-29T06:22:25;12.50;99.90
18577;DHT22;9418;52.694;13.294;2022-10-29T06:24:52;12.50;99.90
18577;DHT22;9418;52.694;13.294;2022-10-29T06:27:18;12.50;99.00
18577;DHT22;9418;52.694;13.294;2022-10-29T06:29:45;12.50;96.50
18577;DHT22;9418;52.694;13.294;2022-10-29T06:32:11;12.60;94.70
18577;DHT22;9418;52.694;13.294;2022-10-29T06:34:38;12.50;94.10
18577;DHT22;9418;52.694;13.294;2022-10-29T06:37:06;12.50;92.50
18577;DHT22;9418;52.694;13.294;2022-10-29T06:39:32;12.60;87.80
18577;DHT22;9418;52.694;13.294;2022-10-29T06:41:59;12.60;87.80
18577;DHT22;9418;52.694;13.294;2022-10-29T06:44:25;12.60;89.80
18577;DHT22;9418;52.694;13.294;2022-10-29T06:46:52;12.60;89.60
18577;DHT22;9418;52.694;13.294;2022-10-29T06:49:19;12.60;86.70
18577;DHT22;9418;52.694;13.294;2022-10-29T06:51:45;12.70;84.50
18577;DHT22;9418;52.694;13.294;2022-10-29T06:54:13;12.80;81.30
18577;DHT22;9418;52.694;13.294;2022-10-29T06:56:40;12.90;77.70
18577;DHT22;9418;52.694;13.294;2022-10-29T06:59:07;13.00;75.20
18577;DHT22;9418;52.694;13.294;2022-10-29T07:01:33;13.10;73.20
18577;DHT22;9418;52.694;13.294;2022-10-29T07:04:00;13.20;71.70
18577;DHT22;9418;52.694;13.294;2022-10-29T07:06:27;13.30;66.90
18577;DHT22;9418;52.694;13.294;2022-10-29T07:08:56;13.50;63.00
18577;DHT22;9418;52.694;13.294;2022-10-29T07:11:24;13.60;61.40
18577;DHT22;9418;52.694;13.294;2022-10-29T07:13:51;13.80;58.80
18577;DHT22;9418;52.694;13.294;2022-10-29T07:16:17;13.90;58.20
18577;DHT22;9418;52.694;13.294;2022-10-29T07:18:44;14.00;57.80
18577;DHT22;9418;52.694;13.294;2022-10-29T07:21:10;14.20;56.70
18577;DHT22;9418;52.694;13.294;2022-10-29T07:23:38;14.30;59.80
18577;DHT22;9418;52.694;13.294;2022-10-29T07:26:04;14.50;62.90
18577;DHT22;9418;52.694;13.294;2022-10-29T07:28:32;14.70;68.00
18577;DHT22;9418;52.694;13.294;2022-10-29T07:31:00;14.90;72.60
18577;DHT22;9418;52.694;13.294;2022-10-29T07:33:27;15.00;89.30
18577;DHT22;9418;52.694;13.294;2022-10-29T07:35:55;15.20;99.90
18577;DHT22;9418;52.694;13.294;2022-10-29T07:38:22;15.20;99.90
18577;DHT22;9418;52.694;13.294;2022-10-29T07:40:49;15.30;99.90
18577;DHT22;9418;52.694;13.294;2022-10-29T07:43:17;15.60;99.90
18577;DHT22;9418;52.694;13.294;2022-10-29T07:45:47;15.60;99.90
18577;DHT22;9418;52.694;13.294;2022-10-29T07:48:15;15.70;99.90
18577;DHT22;9418;52.694;13.294;2022-10-29T07:50:42;15.70;99.90
18577;DHT22;9418;52.694;13.294;2022-10-29T07:53:09;15.70;99.90
18577;DHT22;9418;52.694;13.294;2022-10-29T07:55:35;15.90;99.90
18577;DHT22;9418;52.694;13.294;2022-10-29T07:58:04;15.90;99.90
18577;DHT22;9418;52.694;13.294;2022-10-29T08:00:31;15.90;99.90
18577;DHT22;9418;52.694;13.294;2022-10-29T08:03:00;15.90;99.90
18577;DHT22;9418;52.694;13.294;2022-10-29T08:05:28;15.90;99.90
18577;DHT22;9418;52.694;13.294;2022-10-29T08:07:55;16.00;99.90
18577;DHT22;9418;52.694;13.294;2022-10-29T08:10:23;16.10;99.90
18577;DHT22;9418;52.694;13.294;2022-10-29T08:12:49;16.10;99.90
18577;DHT22;9418;52.694;13.294;2022-10-29T08:15:16;16.10;99.90
18577;DHT22;9418;52.694;13.294;2022-10-29T08:17:43;16.20;99.90
18577;DHT22;9418;52.694;13.294;2022-10-29T08:20:11;16.30;99.90
18577;DHT22;9418;52.694;13.294;2022-10-29T08:22:38;16.40;99.90
18577;DHT22;9418;52.694;13.294;2022-10-29T08:25:05;16.50;99.90
18577;DHT22;9418;52.694;13.294;2022-10-29T08:27:32;16.60;23.60
18577;DHT22;9418;52.694;13.294;2022-10-29T08:29:59;16.80;33.80
18577;DHT22;9418;52.694;13.294;2022-10-29T08:32:25;17.00;48.30
18577;DHT22;9418;52.694;13.294;2022-10-29T08:34:53;17.10;55.90
18577;DHT22;9418;52.694;13.294;2022-10-29T08:37:22;17.10;66.20
18577;DHT22;9418;52.694;13.294;2022-10-29T08:39:48;17.30;65.10
18577;DHT22;9418;52.694;13.294;2022-10-29T08:42:23;17.50;71.00
18577;DHT22;9418;52.694;13.294;2022-10-29T08:45:01;17.70;89.20
18577;DHT22;9418;52.694;13.294;2022-10-29T08:47:33;17.90;99.90
18577;DHT22;9418;52.694;13.294;2022-10-29T08:50:16;18.00;99.90
18577;DHT22;9418;52.694;13.294;2022-10-29T08:52:46;18.00;99.90
18577;DHT22;9418;52.694;13.294;2022-10-29T08:55:17;18.10;99.90
18577;DHT22;9418;52.694;13.294;2022-10-29T08:57:51;18.40;99.90
18577;DHT22;9418;52.694;13.294;2022-10-29T09:00:20;18.60;99.90
18577;DHT22;9418;52.694;13.294;2022-10-29T09:02:47;18.60;99.90
18577;DHT22;9418;52.694;13.294;2022-10-29T09:05:23;18.80;99.90
18577;DHT22;9418;52.694;13.294;2022-10-29T09:08:16;18.90;99.90
18577;DHT22;9418;52.694;13.294;2022-10-29T09:10:51;18.80;99.90
18577;DHT22;9418;52.694;13.294;2022-10-29T09:13:28;18.80;99.90
18577;DHT22;9418;52.694;13.294;2022-10-29T09:16:18;18.90;99.90
18577;DHT22;9418;52.694;13.294;2022-10-29T09:18:57;19.20;99.90
18577;DHT22;9418;52.694;13.294;2022-10-29T09:21:31;19.10;99.90
18577;DHT22;9418;52.694;13.294;2022-10-29T09:24:11;18.90;99.90
18577;DHT22;9418;52.694;13.294;2022-10-29T09:26:50;18.70;99.90
18577;DHT22;9418;52.694;13.294;2022-10-29T09:29:46;18.40;99.90
18577;DHT22;9418;52.694;13.294;2022-10-29T09:32:21;18.30;99.90
18577;DHT22;9418;52.694;13.294;2022-10-29T09:34:51;18.10;99.90
18577;DHT22;9418;52.694;13.294;2022-10-29T09:37:24;17.90;99.90
18577;DHT22;9418;52.694;13.294;2022-10-29T09:39:56;17.60;99.90
18577;DHT22;9418;52.694;13.294;2022-10-29T09:42:31;17.70;99.90
18577;DHT22;9418;52.694;13.294;2022-10-29T09:45:01;17.80;99.90
18577;DHT22;9418;52.694;13.294;2022-10-29T09:47:37;17.80;99.90
18577;DHT22;9418;52.694;13.294;2022-10-29T09:50:13;17.80;99.90
18577;DHT22;9418;52.694;13.294;2022-10-29T09:52:42;17.80;99.90
18577;DHT22;9418;52.694;13.294;2022-10-29T09:55:17;17.80;99.90
18577;DHT22;9418;52.694;13.294;2022-10-29T09:57:46;17.80;99.90
18577;DHT22;9418;52.694;13.294;2022-10-29T10:00:18;17.80;99.90
18577;DHT22;9418;52.694;13.294;2022-10-29T10:02:49;17.80;99.90
18577;DHT22;9418;52.694;13.294;2022-10-29T10:05:24;17.90;99.90
18577;DHT22;9418;52.694;13.294;2022-10-29T10:08:09;18.00;99.90
18577;DHT22;9418;52.694;13.294;2022-10-29T10:10:48;17.90;99.90
18577;DHT22;9418;52.694;13.294;2022-10-29T10:13:17;17.90;99.90
18577;DHT22;9418;52.694;13.294;2022-10-29T10:15:49;17.80;99.90
18577;DHT22;9418;52.694;13.294;2022-10-29T10:18:19;17.80;99.90
18577;DHT22;9418;52.694;13.294;2022-10-29T10:20:48;17.80;99.90
18577;DHT22;9418;52.694;13.294;2022-10-29T10:23:26;17.80;99.90
18577;DHT22;9418;52.694;13.294;2022-10-29T10:25:55;17.80;99.90
18577;DHT22;9418;52.694;13.294;2022-10-29T10:28:24;17.80;99.90
18577;DHT22;9418;52.694;13.294;2022-10-29T10:31:12;18.00;99.90
18577;DHT22;9418;52.694;13.294;2022-10-29T10:33:50;18.20;99.90
18577;DHT22;9418;52.694;13.294;2022-10-29T10:36:19;18.50;99.90
18577;DHT22;9418;52.694;13.294;2022-10-29T10:38:49;18.70;99.90
18577;DHT22;9418;52.694;13.294;2022-10-29T10:41:23;18.90;99.90
18577;DHT22;9418;52.694;13.294;2022-10-29T10:43:51;18.90;99.90
18577;DHT22;9418;52.694;13.294;2022-10-29T10:46:23;19.00;99.90
18577;DHT22;9418;52.694;13.294;2022-10-29T10:48:57;18.90;99.90
18577;DHT22;9418;52.694;13.294;2022-10-29T10:51:27;18.80;99.90
18577;DHT22;9418;52.694;13.294;2022-10-29T10:53:55;19.00;99.90
18577;DHT22;9418;52.694;13.294;2022-10-29T10:56:23;18.90;99.90
18577;DHT22;9418;52.694;13.294;2022-10-29T10:58:55;19.00;99.90
18577;DHT22;9418;52.694;13.294;2022-10-29T11:01:28;19.10;99.90
18577;DHT22;9418;52.694;13.294;2022-10-29T11:04:02;19.10;99.90
18577;DHT22;9418;52.694;13.294;2022-10-29T11:06:32;19.10;99.90
18577;DHT22;9418;52.694;13.294;2022-10-29T11:09:05;19.00;99.90
18577;DHT22;9418;52.694;13.294;2022-10-29T11:11:37;19.50;99.90
18577;DHT22;9418;52.694;13.294;2022-10-29T11:14:11;19.40;99.90
18577;DHT22;9418;52.694;13.294;2022-10-29T11:16:43;19.40;99.90
18577;DHT22;9418;52.694;13.294;2022-10-29T11:19:17;19.70;99.90
18577;DHT22;9418;52.694;13.294;2022-10-29T11:21:54;19.90;99.90
18577;DHT22;9418;52.694;13.294;2022-10-29T11:24:24;19.60;99.90
18577;DHT22;9418;52.694;13.294;2022-10-29T11:26:59;19.70;99.90
18577;DHT22;9418;52.694;13.294;2022-10-29T11:29:33;19.80;99.90
18577;DHT22;9418;52.694;13.294;2022-10-29T11:32:09;19.80;99.90
18577;DHT22;9418;52.694;13.294;2022-10-29T11:34:47;19.90;99.90
18577;DHT22;9418;52.694;13.294;2022-10-29T11:37:19;19.90;99.90
18577;DHT22;9418;52.694;13.294;2022-10-29T11:39:51;19.90;99.90
18577;DHT22;9418;52.694;13.294;2022-10-29T11:42:21;20.00;99.90
18577;DHT22;9418;52.694;13.294;2022-10-29T11:44:48;19.90;99.90
18577;DHT22;9418;52.694;13.294;2022-10-29T11:47:26;19.90;99.90
18577;DHT22;9418;52.694;13.294;2022-10-29T11:50:10;19.70;99.90
18577;DHT22;9418;52.694;13.294;2022-10-29T11:52:42;20.10;99.90
18577;DHT22;9418;52.694;13.294;2022-10-29T11:55:20;20.20;99.90
18577;DHT22;9418;52.694;13.294;2022-10-29T11:57:53;20.10;99.90
18577;DHT22;9418;52.694;13.294;2022-10-29T12:00:21;19.90;99.90
18577;DHT22;9418;52.694;13.294;2022-10-29T12:03:06;19.60;99.90
18577;DHT22;9418;52.694;13.294;2022-10-29T12:05:40;19.80;99.90
18577;DHT22;9418;52.694;13.294;2022-10-29T12:08:20;19.70;99.90
18577;DHT22;9418;52.694;13.294;2022-10-29T12:10:54;19.80;99.90
18577;DHT22;9418;52.694;13.294;2022-10-29T12:13:34;19.80;99.90
18577;DHT22;9418;52.694;13.294;2022-10-29T12:16:18;19.60;99.90
18577;DHT22;9418;52.694;13.294;2022-10-29T12:18:51;19.60;99.90
18577;DHT22;9418;52.694;13.294;2022-10-29T12:21:27;19.50;99.90
18577;DHT22;9418;52.694;13.294;2022-10-29T12:24:06;19.50;99.90
18577;DHT22;9418;52.694;13.294;2022-10-29T12:26:39;19.50;99.90
18577;DHT22;9418;52.694;13.294;2022-10-29T12:29:15;19.70;99.90
18577;DHT22;9418;52.694;13.294;2022-10-29T12:31:50;19.70;99.90
18577;DHT22;9418;52.694;13.294;2022-10-29T12:34:25;19.70;99.90
18577;DHT22;9418;52.694;13.294;2022-10-29T12:37:01;20.00;99.90
18577;DHT22;9418;52.694;13.294;2022-10-29T12:39:36;20.30;99.90
18577;DHT22;9418;52.694;13.294;2022-10-29T12:42:08;20.30;99.90
18577;DHT22;9418;52.694;13.294;2022-10-29T12:44:44;20.30;99.90
18577;DHT22;9418;52.694;13.294;2022-10-29T12:47:17;20.90;99.90
18577;DHT22;9418;52.694;13.294;2022-10-29T12:49:55;20.70;99.90
18577;DHT22;9418;52.694;13.294;2022-10-29T12:52:29;20.50;99.90
18577;DHT22;9418;52.694;13.294;2022-10-29T12:54:58;20.50;99.90
18577;DHT22;9418;52.694;13.294;2022-10-29T12:57:31;20.50;99.90
18577;DHT22;9418;52.694;13.294;2022-10-29T13:00:40;20.60;99.90
18577;DHT22;9418;52.694;13.294;2022-10-29T13:03:09;20.60;99.90
18577;DHT22;9418;52.694;13.294;2022-10-29T13:05:39;20.70;99.90
18577;DHT22;9418;52.694;13.294;2022-10-29T13:08:33;20.60;99.90
18577;DHT22;9418;52.694;13.294;2022-10-29T13:11:00;21.10;99.90
18577;DHT22;9418;52.694;13.294;2022-10-29T13:13:55;21.30;99.90
18577;DHT22;9418;52.694;13.294;2022-10-29T13:16:27;21.00;99.90
18577;DHT22;9418;52.694;13.294;2022-10-29T13:19:07;20.90;99.90
18577;DHT22;9418;52.694;13.294;2022-10-29T13:22:02;21.00;99.90
18577;DHT22;9418;52.694;13.294;2022-10-29T13:24:29;21.00;99.90
18577;DHT22;9418;52.694;13.294;2022-10-29T13:26:58;21.00;99.90
18577;DHT22;9418;52.694;13.294;2022-10-29T13:29:45;21.10;93.40
18577;DHT22;9418;52.694;13.294;2022-10-29T13:32:32;21.50;24.60
18577;DHT22;9418;52.694;13.294;2022-10-29T13:35:01;21.60;35.40
18577;DHT22;9418;52.694;13.294;2022-10-29T13:38:11;21.80;32.20
18577;DHT22;9418;52.694;13.294;2022-10-29T13:43:29;21.60;34.20
18577;DHT22;9418;52.694;13.294;2022-10-29T13:46:38;21.30;99.90
18577;DHT22;9418;52.694;13.294;2022-10-29T13:49:14;21.10;99.90
18577;DHT22;9418;52.694;13.294;2022-10-29T13:51:49;21.10;99.90
18577;DHT22;9418;52.694;13.294;2022-10-29T13:54:21;21.00;99.90
18577;DHT22;9418;52.694;13.294;2022-10-29T13:56:52;21.00;99.90
18577;DHT22;9418;52.694;13.294;2022-10-29T13:59:26;20.90;99.90
18577;DHT22;9418;52.694;13.294;2022-10-29T14:02:04;20.80;99.90
18577;DHT22;9418;52.694;13.294;2022-10-29T14:04:41;20.70;99.90
18577;DHT22;9418;52.694;13.294;2022-10-29T14:07:16;20.60;99.90
18577;DHT22;9418;52.694;13.294;2022-10-29T14:09:47;20.50;99.90
18577;DHT22;9418;52.694;13.294;2022-10-29T14:12:17;20.30;99.90
18577;DHT22;9418;52.694;13.294;2022-10-29T14:14:52;20.30;99.90
18577;DHT22;9418;52.694;13.294;2022-10-29T14:17:20;20.30;99.90
18577;DHT22;9418;52.694;13.294;2022-10-29T14:19:50;20.30;99.90
18577;DHT22;9418;52.694;13.294;2022-10-29T14:22:35;20.20;99.90
18577;DHT22;9418;52.694;13.294;2022-10-29T14:27:45;19.90;99.90
18577;DHT22;9418;52.694;13.294;2022-10-29T14:30:13;19.80;99.90
18577;DHT22;9418;52.694;13.294;2022-10-29T14:32:43;19.60;99.90
18577;DHT22;9418;52.694;13.294;2022-10-29T14:35:15;19.50;99.90
18577;DHT22;9418;52.694;13.294;2022-10-29T14:37:42;19.40;99.90
18577;DHT22;9418;52.694;13.294;2022-10-29T14:40:17;19.30;99.90
18577;DHT22;9418;52.694;13.294;2022-10-29T14:42:47;19.20;99.90
18577;DHT22;9418;52.694;13.294;2022-10-29T14:45:19;19.10;99.90
18577;DHT22;9418;52.694;13.294;2022-10-29T14:47:51;18.90;99.90
18577;DHT22;9418;52.694;13.294;2022-10-29T14:50:21;18.80;99.90
18577;DHT22;9418;52.694;13.294;2022-10-29T14:52:51;18.70;90.80
18577;DHT22;9418;52.694;13.294;2022-10-29T14:55:20;18.60;86.90
18577;DHT22;9418;52.694;13.294;2022-10-29T14:57:50;18.50;84.10
18577;DHT22;9418;52.694;13.294;2022-10-29T15:00:23;18.40;76.90
18577;DHT22;9418;52.694;13.294;2022-10-29T15:02:50;18.30;68.40
18577;DHT22;9418;52.694;13.294;2022-10-29T15:05:24;18.20;63.80
18577;DHT22;9418;52.694;13.294;2022-10-29T15:08:02;18.10;59.70
18577;DHT22;9418;52.694;13.294;2022-10-29T15:10:29;18.10;56.20
18577;DHT22;9418;52.694;13.294;2022-10-29T15:12:56;18.00;52.30
18577;DHT22;9418;52.694;13.294;2022-10-29T15:15:27;17.90;47.40
18577;DHT22;9418;52.694;13.294;2022-10-29T15:17:58;17.80;47.50
18577;DHT22;9418;52.694;13.294;2022-10-29T15:20:31;17.80;44.40
18577;DHT22;9418;52.694;13.294;2022-10-29T15:22:59;17.70;42.60
18577;DHT22;9418;52.694;13.294;2022-10-29T15:25:29;17.70;39.30
18577;DHT22;9418;52.694;13.294;2022-10-29T15:27:56;17.60;34.70
18577;DHT22;9418;52.694;13.294;2022-10-29T15:30:31;17.50;28.60
18577;DHT22;9418;52.694;13.294;2022-10-29T15:32:59;17.50;26.50
18577;DHT22;9418;52.694;13.294;2022-10-29T15:35:27;17.40;24.20
18577;DHT22;9418;52.694;13.294;2022-10-29T15:37:54;17.30;21.30
18577;DHT22;9418;52.694;13.294;2022-10-29T15:40:22;17.20;90.10
18577;DHT22;9418;52.694;13.294;2022-10-29T15:42:50;17.10;99.90
18577;DHT22;9418;52.694;13.294;2022-10-29T15:45:23;17.10;99.90
18577;DHT22;9418;52.694;13.294;2022-10-29T15:47:52;17.00;99.90
18577;DHT22;9418;52.694;13.294;2022-10-29T15:50:22;17.00;99.90
18577;DHT22;9418;52.694;13.294;2022-10-29T15:52:56;17.00;99.90
18577;DHT22;9418;52.694;13.294;2022-10-29T15:55:25;17.00;99.90
18577;DHT22;9418;52.694;13.294;2022-10-29T15:57:54;16.90;99.90